Time;durP1;ratioP1;P1;durP2;ratioP2;P2;SDS_P1;SDS_P2;PMS_P1;PMS_P2;Temp;Humidity;BMP_temperature;BMP_pressure;BME280_temperature;BME280_humidity;BME280_pressure;Samples;Min_cycle;Max_cycle;Signal;HPM_P1;HPM_P2
2022/12/01 00:01:02;;;;;;;28.30;13.20;;;;;;;0.52;86.87;101450.73;105905;1286;73663;-71
2022/12/01 00:03:50;;;;;;;28.00;12.00;;;;;;;0.52;87.15;101444.43;105915;1292;58103;-71
2022/12/01 00:06:38;;;;;;;28.00;12.80;;;;;;;0.53;87.20;101440.75;105935;1291;61140;-70
2022/12/01 00:12:32;;;;;;;34.30;13.00;;;;;;;0.53;87.22;101442.67;105766;1292;69080;-72
2022/12/01 00:15:20;;;;;;;32.20;13.90;;;;;;;0.54;87.11;101442.66;105796;1295;71483;-72
2022/12/01 00:18:09;;;;;;;27.20;12.70;;;;;;;0.55;87.10;101442.11;105743;1295;58641;-71
2022/12/01 00:20:56;;;;;;;32.10;13.80;;;;;;;0.54;86.93;101445.80;105914;1285;61194;-72
2022/12/01 00:23:47;;;;;;;23.80;10.50;;;;;;;0.54;87.11;101448.95;105905;1284;72935;-71
2022/12/01 00:26:36;;;;;;;28.60;13.10;;;;;;;0.52;87.08;101447.05;105799;1295;69427;-71
2022/12/01 00:29:24;;;;;;;28.70;12.70;;;;;;;0.50;87.29;101449.52;105777;1287;72970;-71
2022/12/01 00:32:13;;;;;;;24.90;12.40;;;;;;;0.52;87.28;101453.16;105893;1292;58688;-73
2022/12/01 00:35:02;;;;;;;27.20;11.90;;;;;;;0.54;87.45;101448.25;105747;1295;60069;-71
2022/12/01 00:37:49;;;;;;;24.50;9.90;;;;;;;0.57;87.23;101446.10;105927;1291;72176;-74
2022/12/01 00:40:36;;;;;;;23.30;11.60;;;;;;;0.57;86.86;101444.54;105810;1292;66552;-72
2022/12/01 00:43:24;;;;;;;23.40;10.60;;;;;;;0.56;86.71;101441.93;105745;1292;71515;-70
2022/12/01 00:46:12;;;;;;;23.00;11.40;;;;;;;0.55;86.52;101443.51;105798;1295;57952;-70
2022/12/01 00:48:59;;;;;;;23.40;11.10;;;;;;;0.55;86.52;101440.02;105908;1284;60279;-71
2022/12/01 00:51:47;;;;;;;25.20;11.80;;;;;;;0.54;86.34;101434.44;105178;1292;1002250;-71
2022/12/01 00:54:34;;;;;;;24.20;11.10;;;;;;;0.56;86.55;101439.47;105910;1292;68690;-70
2022/12/01 00:57:22;;;;;;;23.60;11.60;;;;;;;0.59;86.20;101437.86;105910;1292;72712;-71
2022/12/01 01:00:11;;;;;;;19.80;9.50;;;;;;;0.61;85.99;101433.13;105902;1292;58116;-71
2022/12/01 01:02:59;;;;;;;22.60;10.50;;;;;;;0.64;86.01;101435.02;105901;1291;61339;-73
2022/12/01 01:05:46;;;;;;;22.80;10.70;;;;;;;0.67;85.87;101438.46;105160;1293;1002750;-72
2022/12/01 01:08:35;;;;;;;22.30;10.70;;;;;;;0.69;86.04;101436.85;105911;1292;66513;-74
2022/12/01 01:11:22;;;;;;;20.40;10.10;;;;;;;0.71;85.91;101432.98;105782;1287;71611;-71
2022/12/01 01:14:10;;;;;;;20.00;9.70;;;;;;;0.74;86.02;101437.13;105890;1285;58159;-72
2022/12/01 01:16:57;;;;;;;20.00;10.00;;;;;;;0.74;85.64;101435.02;105934;1286;58921;-71
2022/12/01 01:19:45;;;;;;;22.20;10.10;;;;;;;0.73;85.37;101433.64;105894;1292;74738;-70
2022/12/01 01:22:34;;;;;;;20.70;9.80;;;;;;;0.71;85.33;101427.02;105904;1292;67743;-71
2022/12/01 01:25:22;;;;;;;21.00;9.90;;;;;;;0.71;85.27;101432.45;105144;1291;1002127;-70
2022/12/01 01:28:09;;;;;;;22.20;10.60;;;;;;;0.74;85.37;101432.58;105793;1295;57975;-70
2022/12/01 01:30:57;;;;;;;21.30;10.00;;;;;;;0.75;85.40;101434.31;105169;1298;1002722;-71
2022/12/01 01:33:46;;;;;;;20.20;10.10;;;;;;;0.73;85.05;101431.21;105171;1292;1002792;-71
2022/12/01 01:36:33;;;;;;;21.20;9.90;;;;;;;0.72;85.55;101436.30;105918;1291;68884;-70
2022/12/01 01:39:21;;;;;;;20.10;9.30;;;;;;;0.71;85.35;101436.81;105785;1292;72725;-74
2022/12/01 01:42:13;;;;;;;22.90;10.50;;;;;;;0.71;85.48;101439.09;105673;1293;58666;-70
2022/12/01 01:45:00;;;;;;;19.20;9.10;;;;;;;0.71;85.41;101439.43;105887;1292;60535;-70
2022/12/01 01:47:51;;;;;;;21.60;10.10;;;;;;;0.68;85.42;101437.74;105778;1288;74938;-69
2022/12/01 01:50:39;;;;;;;21.20;10.30;;;;;;;0.69;85.63;101435.81;105910;1285;67650;-71
2022/12/01 01:53:28;;;;;;;20.10;9.20;;;;;;;0.72;85.88;101432.97;105050;1288;1002933;-71
2022/12/01 01:56:16;;;;;;;21.20;10.40;;;;;;;0.75;85.86;101432.91;105915;1294;58085;-72
2022/12/01 01:59:03;;;;;;;19.40;9.50;;;;;;;0.79;85.89;101435.66;105802;1286;58623;-70
2022/12/01 02:02:00;;;;;;;23.30;10.00;;;;;;;0.80;85.76;101431.80;105799;1292;74985;-71
2022/12/01 02:04:56;;;;;;;22.90;10.60;;;;;;;0.81;85.88;101433.70;105739;1289;67739;-72
2022/12/01 02:07:45;;;;;;;25.30;11.10;;;;;;;0.84;85.86;101433.13;105740;1292;72303;-71
2022/12/01 02:10:51;;;;;;;21.30;10.40;;;;;;;0.88;85.84;101431.51;105660;1295;59529;-71
2022/12/01 02:14:05;;;;;;;21.00;9.80;;;;;;;0.91;85.70;101431.80;105757;1291;58986;-70
2022/12/01 02:17:16;;;;;;;21.20;10.40;;;;;;;0.92;85.73;101435.46;105736;1291;75030;-70
2022/12/01 02:20:41;;;;;;;22.00;10.50;;;;;;;0.92;85.68;101437.55;105754;1292;66582;-69
2022/12/01 02:24:01;;;;;;;18.20;8.70;;;;;;;0.91;85.67;101431.44;105781;1291;73514;-71
2022/12/01 02:27:40;;;;;;;20.80;9.60;;;;;;;0.90;85.56;101437.23;105786;1291;59715;-71
2022/12/01 02:31:07;;;;;;;25.10;10.20;;;;;;;0.89;85.55;101432.52;105745;1291;60128;-71
2022/12/01 02:34:03;;;;;;;23.40;10.30;;;;;;;0.91;85.64;101429.02;105110;1301;75017;-71
2022/12/01 02:37:23;;;;;;;21.30;10.00;;;;;;;0.92;85.69;101427.40;105227;1300;68759;-70
2022/12/01 02:40:21;;;;;;;20.80;9.70;;;;;;;0.94;85.48;101425.47;105216;1287;71485;-70
2022/12/01 02:43:21;;;;;;;21.20;9.90;;;;;;;0.94;85.62;101429.84;105098;1309;58491;-71
2022/12/01 02:46:46;;;;;;;20.80;10.40;;;;;;;0.92;85.44;101427.92;105138;1299;60090;-70
2022/12/01 02:49:39;;;;;;;21.90;10.20;;;;;;;0.90;85.74;101428.31;104561;1306;74852;-70
2022/12/01 02:52:28;;;;;;;19.60;9.10;;;;;;;0.89;85.52;101425.89;104554;1306;67598;-70
2022/12/01 02:55:16;;;;;;;19.70;10.00;;;;;;;0.88;85.76;101425.38;104432;1309;73257;-70
2022/12/01 02:58:13;;;;;;;21.70;9.90;;;;;;;0.91;85.85;101424.81;104547;1315;58909;-70
2022/12/01 03:01:36;;;;;;;20.30;9.40;;;;;;;0.94;85.49;101421.78;104312;1306;60220;-73
2022/12/01 03:04:51;;;;;;;19.00;9.30;;;;;;;0.94;85.62;101420.21;104567;1306;74944;-69
2022/12/01 03:07:58;;;;;;;19.40;8.90;;;;;;;0.95;86.10;101418.64;104568;1306;67876;-69
2022/12/01 03:10:58;;;;;;;20.00;9.40;;;;;;;0.97;85.84;101418.95;104583;1304;73518;-69
2022/12/01 03:14:00;;;;;;;22.80;10.10;;;;;;;0.96;85.91;101416.34;105067;1295;58634;-69
2022/12/01 03:16:53;;;;;;;22.50;9.50;;;;;;;0.99;85.89;101415.06;105113;1303;60059;-69
2022/12/01 03:19:52;;;;;;;21.00;9.20;;;;;;;1.02;86.07;101413.96;104873;1301;74745;-70
2022/12/01 03:22:50;;;;;;;20.70;9.60;;;;;;;1.00;84.94;101411.37;105122;1300;66530;-69
2022/12/01 03:25:43;;;;;;;21.40;9.00;;;;;;;0.98;84.97;101413.86;105157;1293;71482;-69
2022/12/01 03:28:36;;;;;;;18.80;8.60;;;;;;;0.97;85.40;101410.20;105744;1289;57931;-70
2022/12/01 03:31:36;;;;;;;23.00;10.50;;;;;;;0.98;85.42;101411.75;105735;1295;61677;-70
2022/12/01 03:34:42;;;;;;;22.20;10.50;;;;;;;0.94;84.51;101411.48;105738;1292;72642;-70
2022/12/01 03:37:42;;;;;;;19.50;9.90;;;;;;;0.91;84.25;101415.38;105812;1287;67611;-68
2022/12/01 03:40:32;;;;;;;20.90;10.50;;;;;;;0.86;84.13;101415.80;105898;1292;70843;-72
2022/12/01 03:43:26;;;;;;;18.00;8.60;;;;;;;0.84;84.46;101416.52;105745;1300;58392;-70
2022/12/01 03:46:43;;;;;;;22.60;10.80;;;;;;;0.83;84.63;101415.49;105955;1284;58914;-70
2022/12/01 03:49:31;;;;;;;20.40;10.20;;;;;;;0.81;84.67;101417.61;105899;1285;73784;-70
2022/12/01 03:52:42;;;;;;;21.50;10.10;;;;;;;0.81;84.89;101412.73;105910;1292;66997;-70
2022/12/01 03:55:36;;;;;;;21.30;10.10;;;;;;;0.81;84.80;101410.11;105791;1292;73849;-70
2022/12/01 03:58:33;;;;;;;22.60;9.60;;;;;;;0.83;84.82;101409.73;105655;1295;60020;-69
2022/12/01 04:01:21;;;;;;;20.30;9.40;;;;;;;0.85;84.84;101409.02;105676;1292;58592;-71
2022/12/01 04:04:12;;;;;;;21.80;9.40;;;;;;;0.88;84.49;101410.00;105909;1284;73929;-69
2022/12/01 04:06:59;;;;;;;17.10;8.30;;;;;;;0.88;84.52;101410.88;105935;1291;69228;-69
2022/12/01 04:09:47;;;;;;;18.00;8.80;;;;;;;0.90;84.51;101406.48;105906;1292;72830;-70
2022/12/01 04:12:35;;;;;;;17.00;8.40;;;;;;;0.92;84.47;101404.01;105907;1298;57976;-69
2022/12/01 04:15:24;;;;;;;17.00;8.20;;;;;;;0.92;84.38;101406.27;105891;1286;61406;-70
2022/12/01 04:18:12;;;;;;;19.50;9.90;;;;;;;0.92;84.19;101408.73;105811;1294;73547;-69
2022/12/01 04:20:59;;;;;;;19.90;9.50;;;;;;;0.91;84.14;101410.64;105797;1292;67587;-71
2022/12/01 04:23:59;;;;;;;19.40;9.10;;;;;;;0.93;84.17;101407.66;105905;1292;73425;-71
2022/12/01 04:26:46;;;;;;;20.40;9.70;;;;;;;0.96;84.53;101408.30;105896;1292;58472;-69
2022/12/01 04:29:34;;;;;;;17.60;7.20;;;;;;;0.99;84.27;101411.23;105895;1291;60529;-70
2022/12/01 04:32:22;;;;;;;19.20;8.90;;;;;;;1.00;84.16;101410.50;105908;1285;73986;-70
2022/12/01 04:35:11;;;;;;;17.90;9.00;;;;;;;0.99;83.83;101412.80;105903;1284;68824;-70
2022/12/01 04:37:58;;;;;;;18.20;8.30;;;;;;;0.98;84.11;101410.72;105714;1292;74000;-70
2022/12/01 04:40:46;;;;;;;18.90;8.60;;;;;;;0.98;84.19;101411.06;105894;1292;58038;-70
2022/12/01 04:43:33;;;;;;;17.30;8.20;;;;;;;0.96;84.00;101408.30;105929;1292;60036;-71
2022/12/01 04:46:22;;;;;;;18.90;9.30;;;;;;;0.94;84.01;101412.35;105905;1286;74597;-70
2022/12/01 04:49:10;;;;;;;18.90;9.10;;;;;;;0.94;84.11;101411.48;105920;1284;67461;-70
2022/12/01 04:51:58;;;;;;;16.30;7.70;;;;;;;0.94;84.17;101416.03;105897;1292;72591;-70
2022/12/01 04:54:45;;;;;;;17.30;8.30;;;;;;;0.91;83.31;101418.15;105787;1294;58389;-69
2022/12/01 04:57:33;;;;;;;18.40;8.90;;;;;;;0.85;82.80;101419.48;105933;1289;58039;-71
2022/12/01 05:00:20;;;;;;;16.10;7.90;;;;;;;0.82;83.12;101420.59;105920;1291;73807;-69
2022/12/01 05:03:08;;;;;;;20.30;9.60;;;;;;;0.81;83.32;101420.25;105915;1291;67605;-70
2022/12/01 05:06:08;;;;;;;18.00;9.20;;;;;;;0.79;83.58;101422.53;105922;1292;72880;-73
2022/12/01 05:08:59;;;;;;;19.90;9.30;;;;;;;0.78;83.32;101420.64;105804;1292;58113;-69
2022/12/01 05:11:47;;;;;;;16.90;8.20;;;;;;;0.77;83.51;101421.17;105742;1291;60209;-68
2022/12/01 05:14:34;;;;;;;16.90;8.40;;;;;;;0.78;83.60;101419.23;105766;1292;73103;-71
2022/12/01 05:17:22;;;;;;;16.60;8.00;;;;;;;0.79;83.67;101423.25;105885;1292;66848;-71
2022/12/01 05:23:28;;;;;;;19.60;9.30;;;;;;;0.73;83.22;101423.86;105739;1300;59639;-72
2022/12/01 05:26:16;;;;;;;18.30;9.20;;;;;;;0.72;83.34;101419.69;105792;1285;60044;-71
2022/12/01 05:29:04;;;;;;;20.40;9.10;;;;;;;0.72;83.49;101421.79;105870;1292;73589;-69
2022/12/01 05:31:51;;;;;;;18.20;8.00;;;;;;;0.73;83.57;101424.73;105906;1291;67948;-68
2022/12/01 05:34:39;;;;;;;20.10;9.10;;;;;;;0.73;83.60;101428.77;105903;1292;72831;-69
2022/12/01 05:37:32;;;;;;;19.20;9.30;;;;;;;0.74;83.68;101434.33;105885;1291;58027;-71
2022/12/01 05:40:19;;;;;;;19.80;9.20;;;;;;;0.73;83.68;101434.35;105772;1292;61185;-69
2022/12/01 05:43:07;;;;;;;19.00;8.50;;;;;;;0.72;83.68;101434.02;105896;1292;73931;-72
2022/12/01 05:45:55;;;;;;;18.50;9.50;;;;;;;0.72;83.46;101436.45;105892;1286;68499;-70
2022/12/01 05:48:42;;;;;;;19.60;10.10;;;;;;;0.73;83.35;101436.96;105722;1298;198392;-73
2022/12/01 05:51:30;;;;;;;19.70;9.40;;;;;;;0.71;83.29;101437.70;105886;1292;58062;-69
2022/12/01 05:54:18;;;;;;;19.10;9.70;;;;;;;0.70;83.38;101438.77;105913;1292;58856;-72
2022/12/01 05:57:05;;;;;;;19.60;9.90;;;;;;;0.68;83.38;101438.42;104427;1291;1002305;-70
2022/12/01 05:59:53;;;;;;;16.10;6.80;;;;;;;0.66;83.42;101438.99;105165;1292;1002272;-70
2022/12/01 06:02:41;;;;;;;18.20;9.40;;;;;;;0.64;83.43;101443.91;105774;1292;71299;-73
2022/12/01 06:05:29;;;;;;;17.60;8.80;;;;;;;0.64;83.56;101446.02;105152;1292;1002507;-75
2022/12/01 06:08:16;;;;;;;19.80;9.20;;;;;;;0.65;83.49;101445.12;105723;1294;61452;-72
2022/12/01 06:11:04;;;;;;;19.20;8.40;;;;;;;0.66;83.59;101444.58;105868;1292;72241;-73
2022/12/01 06:13:52;;;;;;;17.90;8.90;;;;;;;0.66;83.40;101451.92;105887;1292;67229;-73
2022/12/01 06:16:40;;;;;;;16.30;8.20;;;;;;;0.64;83.49;101455.27;105711;1284;72396;-72
2022/12/01 06:19:28;;;;;;;19.50;9.70;;;;;;;0.62;83.39;101458.44;105831;1292;58723;-73
2022/12/01 06:22:16;;;;;;;18.50;8.40;;;;;;;0.61;83.59;101455.48;105733;1287;58017;-72
2022/12/01 06:25:04;;;;;;;17.90;8.90;;;;;;;0.59;83.76;101459.88;105718;1287;73910;-71
2022/12/01 06:27:58;;;;;;;18.10;8.90;;;;;;;0.57;83.79;101458.67;105721;1295;69109;-72
2022/12/01 06:30:46;;;;;;;16.70;8.70;;;;;;;0.59;83.93;101463.37;105855;1292;72377;-72
2022/12/01 06:33:33;;;;;;;18.00;8.80;;;;;;;0.58;83.87;101469.48;105837;1291;58070;-72
2022/12/01 06:36:21;;;;;;;18.70;8.90;;;;;;;0.56;84.14;101466.55;105855;1295;60307;-71
2022/12/01 06:39:09;;;;;;;17.40;8.50;;;;;;;0.57;84.23;101466.89;105838;1292;75058;-72
2022/12/01 06:41:57;;;;;;;19.20;9.90;;;;;;;0.56;84.12;101468.30;105870;1285;67536;-73
2022/12/01 06:44:45;;;;;;;23.50;10.10;;;;;;;0.55;84.26;101470.77;105873;1291;71227;-71
2022/12/01 06:47:32;;;;;;;20.90;10.20;;;;;;;0.52;84.00;101471.85;105861;1291;59561;-71
2022/12/01 06:50:21;;;;;;;19.30;9.40;;;;;;;0.51;84.15;101478.50;105894;1292;59988;-73
2022/12/01 06:53:10;;;;;;;17.80;9.30;;;;;;;0.48;84.29;101475.56;105885;1292;72173;-73
2022/12/01 06:56:03;;;;;;;20.00;10.30;;;;;;;0.49;84.49;101478.88;105884;1292;66890;-73
2022/12/01 06:58:52;;;;;;;19.40;9.20;;;;;;;0.49;84.35;101478.54;105890;1285;71901;-71
2022/12/01 07:01:39;;;;;;;18.90;9.70;;;;;;;0.49;84.24;101476.78;105873;1292;59604;-72
2022/12/01 07:04:29;;;;;;;22.60;10.20;;;;;;;0.47;84.30;101475.58;105886;1292;59484;-72
2022/12/01 07:07:16;;;;;;;18.10;9.10;;;;;;;0.51;84.49;101478.69;105885;1292;72295;-72
2022/12/01 07:10:05;;;;;;;18.00;9.10;;;;;;;0.49;84.09;101478.70;105886;1292;68691;-71
2022/12/01 07:12:56;;;;;;;17.10;8.10;;;;;;;0.47;83.85;101478.04;105914;1299;73946;-71
2022/12/01 07:15:43;;;;;;;17.10;8.70;;;;;;;0.45;83.82;101477.89;105735;1292;58090;-72
2022/12/01 07:18:33;;;;;;;17.20;8.60;;;;;;;0.43;83.81;101481.39;105871;1292;57974;-71
2022/12/01 07:21:21;;;;;;;18.30;8.80;;;;;;;0.40;83.75;101478.30;105726;1293;73716;-71
2022/12/01 07:24:09;;;;;;;20.40;8.80;;;;;;;0.42;83.87;101481.42;105835;1290;67680;-72
2022/12/01 07:26:57;;;;;;;19.40;10.00;;;;;;;0.45;83.86;101481.73;105854;1290;72626;-72
2022/12/01 07:29:44;;;;;;;18.60;9.90;;;;;;;0.44;83.63;101485.05;105834;1296;58636;-72
2022/12/01 07:32:32;;;;;;;19.70;9.10;;;;;;;0.40;83.52;101483.02;105822;1292;61288;-73
2022/12/01 07:35:21;;;;;;;18.80;9.10;;;;;;;0.38;83.71;101482.52;105850;1292;74707;-72
2022/12/01 07:38:08;;;;;;;17.80;8.70;;;;;;;0.33;83.94;101481.86;105853;1290;66642;-73
2022/12/01 07:41:14;;;;;;;21.40;10.20;;;;;;;0.31;84.13;101485.55;105830;1291;71203;-74
2022/12/01 07:44:02;;;;;;;18.50;9.40;;;;;;;0.31;84.30;101486.97;105711;1289;58880;-74
2022/12/01 07:46:50;;;;;;;19.80;9.30;;;;;;;0.35;84.70;101484.64;105113;1291;1002965;-73
2022/12/01 07:49:37;;;;;;;17.90;8.10;;;;;;;0.44;85.25;101484.88;105841;1279;73521;-74
2022/12/01 07:52:25;;;;;;;17.90;8.70;;;;;;;0.52;84.46;101485.11;105850;1292;67689;-71
2022/12/01 07:55:13;;;;;;;21.50;10.30;;;;;;;0.58;84.22;101483.65;105842;1298;73757;-73
2022/12/01 07:58:01;;;;;;;17.00;8.50;;;;;;;0.62;83.86;101484.99;105834;1285;58213;-72
2022/12/01 08:00:48;;;;;;;21.50;9.10;;;;;;;0.60;83.53;101484.15;105846;1294;59115;-73
2022/12/01 08:03:37;;;;;;;16.70;7.20;;;;;;;0.61;83.82;101487.97;105852;1291;74653;-72
2022/12/01 08:06:26;;;;;;;20.90;9.40;;;;;;;0.61;83.71;101483.95;105717;1291;67596;-72
2022/12/01 08:09:13;;;;;;;18.80;9.10;;;;;;;0.63;83.47;101486.02;105831;1292;72582;-72
2022/12/01 08:12:01;;;;;;;17.00;8.50;;;;;;;0.65;83.24;101489.83;105832;1291;57973;-71
2022/12/01 08:14:48;;;;;;;18.20;8.30;;;;;;;0.64;82.86;101487.77;105873;1292;60092;-73
2022/12/01 08:17:36;;;;;;;18.00;8.30;;;;;;;0.65;83.20;101490.35;105898;1292;73751;-74
2022/12/01 08:20:24;;;;;;;15.20;7.10;;;;;;;0.68;82.89;101488.59;105878;1292;67555;-72
2022/12/01 08:23:12;;;;;;;17.70;8.80;;;;;;;0.70;82.87;101489.59;105886;1284;72665;-73
2022/12/01 08:26:01;;;;;;;17.30;8.20;;;;;;;0.74;82.77;101491.64;105885;1291;57960;-73
2022/12/01 08:28:49;;;;;;;16.80;7.50;;;;;;;0.75;82.67;101492.31;105130;1291;1002236;-72
2022/12/01 08:31:38;;;;;;;14.90;6.80;;;;;;;0.75;82.17;101496.17;105030;1294;1002303;-71
2022/12/01 08:34:26;;;;;;;14.40;6.80;;;;;;;0.76;81.97;101500.00;105860;1291;69003;-72
2022/12/01 08:37:13;;;;;;;15.80;8.00;;;;;;;0.76;81.73;101499.30;105863;1292;71111;-72
2022/12/01 08:40:01;;;;;;;15.30;7.10;;;;;;;0.80;81.63;101500.81;105765;1291;58544;-72
2022/12/01 08:42:51;;;;;;;15.60;6.50;;;;;;;0.83;80.87;101497.10;105775;1295;61135;-72
2022/12/01 08:45:38;;;;;;;14.30;6.70;;;;;;;0.82;80.29;101496.77;105874;1292;72440;-74
2022/12/01 08:48:30;;;;;;;12.70;6.40;;;;;;;0.82;80.68;101495.19;105856;1292;67842;-73
2022/12/01 08:51:18;;;;;;;14.90;6.60;;;;;;;0.84;80.85;101496.04;105630;1293;72383;-72
2022/12/01 08:54:05;;;;;;;14.90;6.70;;;;;;;0.87;80.47;101496.52;105868;1299;58549;-72
2022/12/01 08:56:53;;;;;;;13.70;6.60;;;;;;;0.88;80.60;101496.15;105869;1292;58097;-72
2022/12/01 08:59:43;;;;;;;13.40;6.60;;;;;;;0.90;80.50;101497.54;105851;1292;74901;-72
2022/12/01 09:02:30;;;;;;;14.10;6.80;;;;;;;0.90;79.89;101505.04;105886;1292;67507;-71
2022/12/01 09:05:18;;;;;;;15.00;7.00;;;;;;;0.88;79.75;101501.21;105681;1295;73624;-73
2022/12/01 09:11:16;;;;;;;14.30;6.60;;;;;;;0.88;79.99;101508.56;105875;1291;61228;-72
2022/12/01 09:14:04;;;;;;;12.70;5.50;;;;;;;0.84;79.45;101504.43;105847;1284;74763;-73
2022/12/01 09:16:52;;;;;;;13.70;6.30;;;;;;;0.84;79.72;101503.37;105890;1290;68891;-72
2022/12/01 09:19:39;;;;;;;13.40;6.20;;;;;;;0.83;79.15;101503.55;105868;1291;72588;-72
2022/12/01 09:22:27;;;;;;;11.60;6.10;;;;;;;0.82;79.24;101500.98;105854;1292;58529;-72
2022/12/01 09:25:14;;;;;;;13.50;6.20;;;;;;;0.86;79.56;101500.39;105874;1299;61200;-71
2022/12/01 09:28:02;;;;;;;11.90;6.00;;;;;;;0.91;79.12;101492.96;105905;1292;74114;-72
2022/12/01 09:30:50;;;;;;;13.40;5.80;;;;;;;0.94;79.01;101486.62;105877;1292;65377;-72
2022/12/01 09:33:38;;;;;;;13.50;5.60;;;;;;;0.95;78.72;101478.74;105883;1292;73684;-72
2022/12/01 09:36:27;;;;;;;11.80;6.00;;;;;;;0.97;78.57;101480.81;105875;1293;58053;-71
2022/12/01 09:39:19;;;;;;;11.80;5.30;;;;;;;1.02;78.50;101479.69;105889;1297;60092;-71
2022/12/01 09:42:14;;;;;;;10.80;5.10;;;;;;;1.04;78.12;101480.71;105790;1294;73767;-71
2022/12/01 09:45:03;;;;;;;13.10;6.60;;;;;;;0.99;78.05;101474.52;105752;1299;67824;-72
2022/12/01 09:47:54;;;;;;;13.00;6.50;;;;;;;0.91;78.00;101471.81;105855;1292;73695;-70
2022/12/01 09:50:42;;;;;;;11.70;5.70;;;;;;;0.87;78.54;101467.15;105778;1291;58478;-73
2022/12/01 09:53:30;;;;;;;14.00;7.80;;;;;;;0.88;78.44;101467.48;105705;1300;60272;-73
2022/12/01 09:56:23;;;;;;;13.60;7.10;;;;;;;0.88;78.52;101457.70;105846;1296;72427;-72
2022/12/01 09:59:42;;;;;;;14.70;7.90;;;;;;;0.93;78.68;101456.77;105844;1297;67756;-74
2022/12/01 10:02:35;;;;;;;16.10;7.80;;;;;;;1.02;78.82;101452.77;105781;1301;74236;-73
2022/12/01 10:05:30;;;;;;;14.20;7.70;;;;;;;1.14;78.59;101447.34;105846;1290;59060;-73
2022/12/01 10:08:22;;;;;;;18.90;9.80;;;;;;;1.23;78.02;101447.20;105569;1301;60334;-73
2022/12/01 10:11:35;;;;;;;14.60;7.60;;;;;;;1.28;77.74;101441.86;105723;1294;72750;-72
2022/12/01 10:14:23;;;;;;;15.50;8.20;;;;;;;1.32;77.47;101437.92;105878;1297;67854;-72
2022/12/01 10:17:47;;;;;;;14.30;7.60;;;;;;;1.38;77.62;101437.48;105874;1292;71170;-73
2022/12/01 10:21:02;;;;;;;17.00;9.20;;;;;;;1.40;77.13;101440.24;105167;1305;58925;-73
2022/12/01 10:24:08;;;;;;;14.20;7.20;;;;;;;1.44;76.97;101443.17;105220;1301;59021;-73
2022/12/01 10:27:22;;;;;;;16.60;7.60;;;;;;;1.48;76.81;101438.52;105197;1297;73526;-72
2022/12/01 10:30:38;;;;;;;16.50;7.60;;;;;;;1.53;77.03;101441.43;104405;1308;67738;-72
2022/12/01 10:33:34;;;;;;;14.50;8.00;;;;;;;1.57;76.74;101439.43;104412;1315;70290;-73
2022/12/01 10:36:23;;;;;;;14.60;7.80;;;;;;;1.57;76.33;101442.05;104403;1309;58174;-73
2022/12/01 10:39:26;;;;;;;15.80;7.00;;;;;;;1.58;76.61;101441.51;104427;1308;61312;-74
2022/12/01 10:42:38;;;;;;;16.50;7.80;;;;;;;1.62;76.25;101446.52;103585;1315;1002747;-74
2022/12/01 10:45:33;;;;;;;15.80;7.10;;;;;;;1.64;76.30;101444.89;104418;1309;68693;-73
2022/12/01 10:48:22;;;;;;;14.70;7.00;;;;;;;1.65;76.31;101441.71;103668;1305;1002168;-74
2022/12/01 10:51:16;;;;;;;17.60;7.40;;;;;;;1.68;75.33;101437.81;104413;1309;58265;-72
2022/12/01 10:54:10;;;;;;;14.40;7.30;;;;;;;1.70;75.53;101439.88;104315;1310;58709;-73
2022/12/01 10:56:58;;;;;;;16.10;7.10;;;;;;;1.71;75.30;101438.80;104466;1307;73647;-73
2022/12/01 10:59:54;;;;;;;15.90;8.10;;;;;;;1.76;75.31;101441.52;105143;1302;67640;-75
2022/12/01 11:02:42;;;;;;;14.60;7.10;;;;;;;1.83;75.07;101438.06;104983;1305;73478;-73
2022/12/01 11:05:41;;;;;;;14.30;7.10;;;;;;;1.95;75.52;101430.11;105114;1301;58232;-73
2022/12/01 11:08:40;;;;;;;13.50;6.70;;;;;;;2.17;75.44;101430.19;105684;1292;60055;-73
2022/12/01 11:11:39;;;;;;;12.00;6.10;;;;;;;2.35;74.22;101427.02;105748;1288;74632;-73
2022/12/01 11:14:45;;;;;;;14.80;6.60;;;;;;;2.48;73.96;101417.27;105879;1292;66474;-72
2022/12/01 11:17:43;;;;;;;12.80;6.20;;;;;;;2.57;73.14;101417.93;105811;1292;72357;-72
2022/12/01 11:20:38;;;;;;;14.40;6.40;;;;;;;2.60;72.49;101419.08;105776;1294;58058;-74
2022/12/01 11:23:28;;;;;;;12.10;5.90;;;;;;;2.58;71.72;101423.17;105908;1292;58730;-72
2022/12/01 11:26:24;;;;;;;11.60;4.70;;;;;;;2.57;72.12;101419.52;105895;1292;73531;-72
2022/12/01 11:29:36;;;;;;;12.90;6.10;;;;;;;2.53;71.42;101418.37;105739;1299;68685;-74
2022/12/01 11:32:31;;;;;;;11.60;5.50;;;;;;;2.51;71.73;101417.39;105869;1291;72326;-75
2022/12/01 11:35:22;;;;;;;12.90;5.70;;;;;;;2.54;72.35;101412.92;105850;1295;58000;-72
2022/12/01 11:38:21;;;;;;;12.00;5.80;;;;;;;2.51;71.01;101418.59;105872;1285;61167;-72
2022/12/01 11:41:43;;;;;;;11.00;6.00;;;;;;;2.41;71.50;101415.33;105881;1294;72176;-71
2022/12/01 11:44:33;;;;;;;14.30;5.90;;;;;;;2.19;71.12;101415.96;105794;1292;68626;-73
2022/12/01 11:48:02;;;;;;;12.40;5.60;;;;;;;1.99;71.69;101416.73;105781;1291;73789;-73
2022/12/01 11:51:08;;;;;;;11.60;5.50;;;;;;;1.89;72.51;101413.63;105055;1299;1003246;-72
2022/12/01 11:54:28;;;;;;;11.90;5.90;;;;;;;1.85;73.11;101413.34;105896;1298;59973;-72
2022/12/01 11:57:16;;;;;;;13.10;5.30;;;;;;;1.83;73.39;101414.96;105183;1301;73793;-72
2022/12/01 12:00:25;;;;;;;13.30;5.80;;;;;;;1.82;73.67;101411.83;105151;1300;67621;-73
2022/12/01 12:03:25;;;;;;;10.70;4.00;;;;;;;1.86;73.99;101409.11;105201;1301;72387;-75
2022/12/01 12:06:37;;;;;;;11.90;5.20;;;;;;;1.87;73.09;101411.55;105017;1302;58280;-78
2022/12/01 12:10:00;;;;;;;11.10;5.10;;;;;;;1.88;73.47;101414.16;105004;1309;60094;-73
2022/12/01 12:13:15;;;;;;;10.80;4.70;;;;;;;1.84;72.92;101411.08;105198;1301;75146;-71
2022/12/01 12:16:30;;;;;;;13.70;5.00;;;;;;;1.78;73.08;101414.20;105129;1302;67554;-73
2022/12/01 12:19:56;;;;;;;10.50;4.60;;;;;;;1.69;73.12;101416.80;105170;1307;72639;-70
2022/12/01 12:23:33;;;;;;;13.30;4.60;;;;;;;1.55;73.08;101421.27;105216;1295;58111;-73
2022/12/01 12:26:29;;;;;;;11.20;5.10;;;;;;;1.43;73.51;101419.91;105156;1300;58946;-77
2022/12/01 12:29:42;;;;;;;10.70;5.10;;;;;;;1.38;74.01;101417.89;105036;1309;72204;-74
2022/12/01 12:33:18;;;;;;;12.00;5.20;;;;;;;1.32;74.54;101415.91;105305;1301;66228;-74
2022/12/01 12:36:42;;;;;;;10.90;4.20;;;;;;;1.31;74.58;101415.75;105870;1292;71107;-78
2022/12/01 12:40:07;;;;;;;9.70;3.80;;;;;;;1.28;74.49;101417.20;104874;1298;1002457;-75
2022/12/01 12:43:02;;;;;;;8.90;3.70;;;;;;;1.31;74.82;101411.70;105812;1285;61125;-76
2022/12/01 12:46:13;;;;;;;10.70;4.20;;;;;;;1.33;74.55;101413.44;105702;1295;75048;-73
2022/12/01 12:49:31;;;;;;;11.00;4.10;;;;;;;1.34;74.46;101411.84;105723;1295;66642;-75
2022/12/01 12:52:32;;;;;;;10.60;4.40;;;;;;;1.35;74.33;101408.34;105719;1292;70257;-75
2022/12/01 12:55:32;;;;;;;10.50;4.50;;;;;;;1.38;74.23;101411.61;105858;1291;57941;-74
2022/12/01 12:58:39;;;;;;;10.60;4.10;;;;;;;1.44;74.39;101410.80;105760;1288;58653;-75
2022/12/01 13:01:35;;;;;;;10.10;3.90;;;;;;;1.47;73.90;101416.52;105743;1300;72173;-71
2022/12/01 13:04:36;;;;;;;10.40;4.10;;;;;;;1.48;73.83;101406.70;105718;1287;66486;-76
2022/12/01 13:07:58;;;;;;;10.90;4.50;;;;;;;1.47;73.90;101402.69;105138;1291;1002955;-78
2022/12/01 13:11:01;;;;;;;9.60;3.90;;;;;;;1.43;73.84;101405.39;105022;1295;1002526;-76
2022/12/01 13:14:16;;;;;;;10.10;4.10;;;;;;;1.42;74.19;101401.56;105871;1291;59085;-73
2022/12/01 13:17:22;;;;;;;10.90;4.70;;;;;;;1.40;74.12;101400.55;105836;1287;73753;-77
2022/12/01 13:20:16;;;;;;;10.40;4.40;;;;;;;1.36;74.12;101397.82;105758;1293;69213;-75
2022/12/01 13:23:04;;;;;;;10.00;4.10;;;;;;;1.35;74.39;101398.88;105814;1292;73705;-75
2022/12/01 13:25:56;;;;;;;11.20;4.60;;;;;;;1.35;74.36;101401.16;105824;1290;58266;-74
2022/12/01 13:28:54;;;;;;;12.10;4.70;;;;;;;1.36;74.70;101401.14;105828;1290;61334;-74